sensor_id;sensor_type;location;lat;lon;timestamp;P1;durP1;ratioP1;P2;durP2;ratioP2
68076;SDS011;54866;53.458;14.540;2023-07-29T00:00:08;14.90;;;11.20;;
68076;SDS011;54866;53.458;14.540;2023-07-29T00:02:38;12.50;;;9.60;;
68076;SDS011;54866;53.458;14.540;2023-07-29T00:05:08;10.60;;;7.90;;
68076;SDS011;54866;53.458;14.540;2023-07-29T00:07:37;15.80;;;10.40;;
68076;SDS011;54866;53.458;14.540;2023-07-29T00:10:08;14.70;;;9.00;;
68076;SDS011;54866;53.458;14.540;2023-07-29T00:12:37;10.20;;;8.00;;
68076;SDS011;54866;53.458;14.540;2023-07-29T00:15:07;13.10;;;8.50;;
68076;SDS011;54866;53.458;14.540;2023-07-29T00:17:37;12.20;;;7.50;;
68076;SDS011;54866;53.458;14.540;2023-07-29T00:20:07;11.00;;;8.60;;
68076;SDS011;54866;53.458;14.540;2023-07-29T00:22:37;9.50;;;7.20;;
68076;SDS011;54866;53.458;14.540;2023-07-29T00:25:06;10.00;;;6.80;;
68076;SDS011;54866;53.458;14.540;2023-07-29T00:27:36;8.80;;;6.30;;
68076;SDS011;54866;53.458;14.540;2023-07-29T00:30:07;7.00;;;5.40;;
68076;SDS011;54866;53.458;14.540;2023-07-29T00:32:37;7.80;;;5.00;;
68076;SDS011;54866;53.458;14.540;2023-07-29T00:35:07;7.00;;;4.80;;
68076;SDS011;54866;53.458;14.540;2023-07-29T00:37:37;9.30;;;5.70;;
68076;SDS011;54866;53.458;14.540;2023-07-29T00:40:09;9.40;;;5.40;;
68076;SDS011;54866;53.458;14.540;2023-07-29T00:42:42;10.00;;;5.90;;
68076;SDS011;54866;53.458;14.540;2023-07-29T00:45:12;9.30;;;6.90;;
68076;SDS011;54866;53.458;14.540;2023-07-29T00:47:41;8.00;;;5.90;;
68076;SDS011;54866;53.458;14.540;2023-07-29T00:50:12;8.90;;;5.70;;
68076;SDS011;54866;53.458;14.540;2023-07-29T00:52:42;7.00;;;5.10;;
68076;SDS011;54866;53.458;14.540;2023-07-29T00:55:12;6.10;;;4.80;;
68076;SDS011;54866;53.458;14.540;2023-07-29T00:57:41;5.20;;;4.00;;
68076;SDS011;54866;53.458;14.540;2023-07-29T01:00:14;7.00;;;4.70;;
68076;SDS011;54866;53.458;14.540;2023-07-29T01:02:44;8.00;;;6.20;;
68076;SDS011;54866;53.458;14.540;2023-07-29T01:05:14;7.10;;;5.00;;
68076;SDS011;54866;53.458;14.540;2023-07-29T01:07:47;9.20;;;5.90;;
68076;SDS011;54866;53.458;14.540;2023-07-29T01:10:26;9.20;;;6.10;;
68076;SDS011;54866;53.458;14.540;2023-07-29T01:13:06;7.50;;;6.10;;
68076;SDS011;54866;53.458;14.540;2023-07-29T01:15:45;7.10;;;5.40;;
68076;SDS011;54866;53.458;14.540;2023-07-29T01:18:22;6.70;;;4.80;;
68076;SDS011;54866;53.458;14.540;2023-07-29T01:20:54;9.20;;;5.60;;
68076;SDS011;54866;53.458;14.540;2023-07-29T01:23:27;6.90;;;5.60;;
68076;SDS011;54866;53.458;14.540;2023-07-29T01:25:58;8.40;;;5.10;;
68076;SDS011;54866;53.458;14.540;2023-07-29T01:28:27;7.00;;;6.10;;
68076;SDS011;54866;53.458;14.540;2023-07-29T01:31:01;7.80;;;6.30;;
68076;SDS011;54866;53.458;14.540;2023-07-29T01:33:35;8.80;;;5.80;;
68076;SDS011;54866;53.458;14.540;2023-07-29T01:36:11;9.30;;;6.30;;
68076;SDS011;54866;53.458;14.540;2023-07-29T01:38:46;7.60;;;6.00;;
68076;SDS011;54866;53.458;14.540;2023-07-29T01:41:19;8.20;;;6.80;;
68076;SDS011;54866;53.458;14.540;2023-07-29T01:43:50;8.10;;;6.40;;
68076;SDS011;54866;53.458;14.540;2023-07-29T01:46:20;6.80;;;6.10;;
68076;SDS011;54866;53.458;14.540;2023-07-29T01:48:49;9.70;;;7.60;;
68076;SDS011;54866;53.458;14.540;2023-07-29T01:51:19;10.10;;;8.20;;
68076;SDS011;54866;53.458;14.540;2023-07-29T01:53:48;8.20;;;5.30;;
68076;SDS011;54866;53.458;14.540;2023-07-29T01:56:18;6.60;;;5.30;;
68076;SDS011;54866;53.458;14.540;2023-07-29T01:58:47;8.70;;;6.80;;
68076;SDS011;54866;53.458;14.540;2023-07-29T02:01:16;7.30;;;6.20;;
68076;SDS011;54866;53.458;14.540;2023-07-29T02:03:45;6.90;;;6.10;;
68076;SDS011;54866;53.458;14.540;2023-07-29T02:06:21;7.90;;;6.00;;
68076;SDS011;54866;53.458;14.540;2023-07-29T02:08:50;8.50;;;5.20;;
68076;SDS011;54866;53.458;14.540;2023-07-29T02:11:20;6.80;;;5.30;;
68076;SDS011;54866;53.458;14.540;2023-07-29T02:16:21;5.70;;;5.20;;
68076;SDS011;54866;53.458;14.540;2023-07-29T02:18:51;6.90;;;5.00;;
68076;SDS011;54866;53.458;14.540;2023-07-29T02:21:20;5.60;;;4.90;;
68076;SDS011;54866;53.458;14.540;2023-07-29T02:23:50;6.60;;;4.90;;
68076;SDS011;54866;53.458;14.540;2023-07-29T02:26:19;6.70;;;5.40;;
68076;SDS011;54866;53.458;14.540;2023-07-29T02:28:50;6.20;;;5.60;;
68076;SDS011;54866;53.458;14.540;2023-07-29T02:31:19;7.60;;;5.60;;
68076;SDS011;54866;53.458;14.540;2023-07-29T02:33:49;7.50;;;5.50;;
68076;SDS011;54866;53.458;14.540;2023-07-29T02:36:19;6.40;;;5.40;;
68076;SDS011;54866;53.458;14.540;2023-07-29T02:38:48;6.70;;;6.00;;
68076;SDS011;54866;53.458;14.540;2023-07-29T02:41:18;7.80;;;5.80;;
68076;SDS011;54866;53.458;14.540;2023-07-29T02:43:49;8.30;;;6.00;;
68076;SDS011;54866;53.458;14.540;2023-07-29T02:46:19;7.20;;;5.30;;
68076;SDS011;54866;53.458;14.540;2023-07-29T02:48:48;6.80;;;5.60;;
68076;SDS011;54866;53.458;14.540;2023-07-29T02:51:18;7.70;;;6.10;;
68076;SDS011;54866;53.458;14.540;2023-07-29T02:53:47;6.30;;;5.20;;
68076;SDS011;54866;53.458;14.540;2023-07-29T02:56:16;7.30;;;5.90;;
68076;SDS011;54866;53.458;14.540;2023-07-29T02:58:46;7.00;;;5.30;;
68076;SDS011;54866;53.458;14.540;2023-07-29T03:01:17;6.80;;;5.30;;
68076;SDS011;54866;53.458;14.540;2023-07-29T03:03:47;6.20;;;5.60;;
68076;SDS011;54866;53.458;14.540;2023-07-29T03:06:16;6.20;;;5.60;;
68076;SDS011;54866;53.458;14.540;2023-07-29T03:08:46;6.00;;;5.40;;
68076;SDS011;54866;53.458;14.540;2023-07-29T03:11:15;6.70;;;6.00;;
68076;SDS011;54866;53.458;14.540;2023-07-29T03:13:45;6.10;;;5.50;;
68076;SDS011;54866;53.458;14.540;2023-07-29T03:16:15;5.90;;;5.00;;
68076;SDS011;54866;53.458;14.540;2023-07-29T03:18:45;7.30;;;6.20;;
68076;SDS011;54866;53.458;14.540;2023-07-29T03:21:16;7.40;;;6.60;;
68076;SDS011;54866;53.458;14.540;2023-07-29T03:23:45;7.30;;;5.70;;
68076;SDS011;54866;53.458;14.540;2023-07-29T03:26:14;6.70;;;5.80;;
68076;SDS011;54866;53.458;14.540;2023-07-29T03:28:43;9.10;;;6.70;;
68076;SDS011;54866;53.458;14.540;2023-07-29T03:31:13;7.60;;;6.20;;
68076;SDS011;54866;53.458;14.540;2023-07-29T03:33:42;8.30;;;6.60;;
68076;SDS011;54866;53.458;14.540;2023-07-29T03:36:11;7.40;;;6.50;;
68076;SDS011;54866;53.458;14.540;2023-07-29T03:38:42;7.40;;;6.40;;
68076;SDS011;54866;53.458;14.540;2023-07-29T03:41:11;6.40;;;5.70;;
68076;SDS011;54866;53.458;14.540;2023-07-29T03:43:41;6.90;;;5.80;;
68076;SDS011;54866;53.458;14.540;2023-07-29T03:46:10;9.80;;;6.40;;
68076;SDS011;54866;53.458;14.540;2023-07-29T03:48:40;6.70;;;5.90;;
68076;SDS011;54866;53.458;14.540;2023-07-29T03:51:09;7.00;;;6.30;;
68076;SDS011;54866;53.458;14.540;2023-07-29T03:53:38;8.10;;;6.90;;
68076;SDS011;54866;53.458;14.540;2023-07-29T03:56:08;7.70;;;7.00;;
68076;SDS011;54866;53.458;14.540;2023-07-29T03:58:37;7.00;;;6.30;;
68076;SDS011;54866;53.458;14.540;2023-07-29T04:01:06;7.60;;;6.40;;
68076;SDS011;54866;53.458;14.540;2023-07-29T04:03:36;6.90;;;6.20;;
68076;SDS011;54866;53.458;14.540;2023-07-29T04:06:05;6.10;;;5.50;;
68076;SDS011;54866;53.458;14.540;2023-07-29T04:08:35;7.00;;;6.10;;
68076;SDS011;54866;53.458;14.540;2023-07-29T04:11:04;6.90;;;6.20;;
68076;SDS011;54866;53.458;14.540;2023-07-29T04:13:33;7.70;;;7.00;;
68076;SDS011;54866;53.458;14.540;2023-07-29T04:16:04;7.80;;;5.90;;
68076;SDS011;54866;53.458;14.540;2023-07-29T04:18:33;8.00;;;6.80;;
68076;SDS011;54866;53.458;14.540;2023-07-29T04:21:03;7.20;;;6.40;;
68076;SDS011;54866;53.458;14.540;2023-07-29T04:23:32;6.80;;;5.70;;
68076;SDS011;54866;53.458;14.540;2023-07-29T04:26:01;6.70;;;5.70;;
68076;SDS011;54866;53.458;14.540;2023-07-29T04:28:31;7.40;;;6.40;;
68076;SDS011;54866;53.458;14.540;2023-07-29T04:31:00;7.70;;;6.10;;
68076;SDS011;54866;53.458;14.540;2023-07-29T04:33:30;7.30;;;6.00;;
68076;SDS011;54866;53.458;14.540;2023-07-29T04:36:00;7.80;;;6.30;;
68076;SDS011;54866;53.458;14.540;2023-07-29T04:38:29;7.00;;;6.30;;
68076;SDS011;54866;53.458;14.540;2023-07-29T04:41:00;7.30;;;6.50;;
68076;SDS011;54866;53.458;14.540;2023-07-29T04:43:34;7.30;;;6.50;;
68076;SDS011;54866;53.458;14.540;2023-07-29T04:46:05;7.10;;;6.40;;
68076;SDS011;54866;53.458;14.540;2023-07-29T04:48:36;8.10;;;7.00;;
68076;SDS011;54866;53.458;14.540;2023-07-29T04:51:05;6.70;;;6.10;;
68076;SDS011;54866;53.458;14.540;2023-07-29T04:53:34;7.50;;;6.50;;
68076;SDS011;54866;53.458;14.540;2023-07-29T04:56:04;7.50;;;6.60;;
68076;SDS011;54866;53.458;14.540;2023-07-29T04:58:34;7.50;;;6.80;;
68076;SDS011;54866;53.458;14.540;2023-07-29T05:01:03;10.30;;;8.40;;
68076;SDS011;54866;53.458;14.540;2023-07-29T05:03:33;8.50;;;7.40;;
68076;SDS011;54866;53.458;14.540;2023-07-29T05:06:03;9.10;;;8.00;;
68076;SDS011;54866;53.458;14.540;2023-07-29T05:08:32;9.60;;;8.10;;
68076;SDS011;54866;53.458;14.540;2023-07-29T05:11:02;8.60;;;7.70;;
68076;SDS011;54866;53.458;14.540;2023-07-29T05:13:31;9.70;;;8.70;;
68076;SDS011;54866;53.458;14.540;2023-07-29T05:16:00;10.10;;;8.30;;
68076;SDS011;54866;53.458;14.540;2023-07-29T05:18:30;9.80;;;8.60;;
68076;SDS011;54866;53.458;14.540;2023-07-29T05:20:59;9.90;;;8.90;;
68076;SDS011;54866;53.458;14.540;2023-07-29T05:23:28;9.60;;;8.60;;
68076;SDS011;54866;53.458;14.540;2023-07-29T05:25:58;9.50;;;8.60;;
68076;SDS011;54866;53.458;14.540;2023-07-29T05:28:27;8.20;;;7.40;;
68076;SDS011;54866;53.458;14.540;2023-07-29T05:30:56;9.40;;;8.40;;
68076;SDS011;54866;53.458;14.540;2023-07-29T05:33:27;8.30;;;7.40;;
68076;SDS011;54866;53.458;14.540;2023-07-29T05:35:57;7.80;;;6.70;;
68076;SDS011;54866;53.458;14.540;2023-07-29T05:38:26;8.70;;;7.50;;
68076;SDS011;54866;53.458;14.540;2023-07-29T05:40:55;8.20;;;7.40;;
68076;SDS011;54866;53.458;14.540;2023-07-29T05:43:25;10.10;;;8.00;;
68076;SDS011;54866;53.458;14.540;2023-07-29T05:45:54;8.00;;;6.90;;
68076;SDS011;54866;53.458;14.540;2023-07-29T05:48:24;9.30;;;7.40;;
68076;SDS011;54866;53.458;14.540;2023-07-29T05:50:53;8.80;;;7.20;;
68076;SDS011;54866;53.458;14.540;2023-07-29T05:53:22;8.00;;;6.60;;
68076;SDS011;54866;53.458;14.540;2023-07-29T05:55:52;7.60;;;6.80;;
68076;SDS011;54866;53.458;14.540;2023-07-29T05:58:21;9.20;;;7.30;;
68076;SDS011;54866;53.458;14.540;2023-07-29T06:00:50;8.60;;;7.10;;
68076;SDS011;54866;53.458;14.540;2023-07-29T06:03:19;8.30;;;7.50;;
68076;SDS011;54866;53.458;14.540;2023-07-29T06:05:49;7.70;;;6.80;;
68076;SDS011;54866;53.458;14.540;2023-07-29T06:08:19;8.90;;;7.00;;
68076;SDS011;54866;53.458;14.540;2023-07-29T06:10:48;7.60;;;6.80;;
68076;SDS011;54866;53.458;14.540;2023-07-29T06:13:18;7.40;;;6.60;;
68076;SDS011;54866;53.458;14.540;2023-07-29T06:15:47;9.10;;;6.90;;
68076;SDS011;54866;53.458;14.540;2023-07-29T06:18:16;9.40;;;7.50;;
68076;SDS011;54866;53.458;14.540;2023-07-29T06:20:45;8.30;;;7.40;;
68076;SDS011;54866;53.458;14.540;2023-07-29T06:23:15;7.70;;;6.90;;
68076;SDS011;54866;53.458;14.540;2023-07-29T06:25:44;8.90;;;7.40;;
68076;SDS011;54866;53.458;14.540;2023-07-29T06:28:14;10.60;;;7.90;;
68076;SDS011;54866;53.458;14.540;2023-07-29T06:30:43;9.40;;;8.40;;
68076;SDS011;54866;53.458;14.540;2023-07-29T06:33:12;7.50;;;6.80;;
68076;SDS011;54866;53.458;14.540;2023-07-29T06:35:42;7.80;;;6.20;;
68076;SDS011;54866;53.458;14.540;2023-07-29T06:38:11;9.80;;;8.10;;
68076;SDS011;54866;53.458;14.540;2023-07-29T06:40:41;8.80;;;7.90;;
68076;SDS011;54866;53.458;14.540;2023-07-29T06:43:10;9.50;;;8.10;;
68076;SDS011;54866;53.458;14.540;2023-07-29T06:45:39;9.70;;;8.50;;
68076;SDS011;54866;53.458;14.540;2023-07-29T06:48:09;10.30;;;9.20;;
68076;SDS011;54866;53.458;14.540;2023-07-29T06:50:38;9.20;;;7.80;;
68076;SDS011;54866;53.458;14.540;2023-07-29T06:53:07;8.90;;;8.00;;
68076;SDS011;54866;53.458;14.540;2023-07-29T06:55:37;9.00;;;8.10;;
68076;SDS011;54866;53.458;14.540;2023-07-29T06:58:06;8.90;;;7.90;;
68076;SDS011;54866;53.458;14.540;2023-07-29T07:00:36;8.80;;;7.90;;
68076;SDS011;54866;53.458;14.540;2023-07-29T07:03:05;8.30;;;7.50;;
68076;SDS011;54866;53.458;14.540;2023-07-29T07:05:34;8.00;;;7.20;;
68076;SDS011;54866;53.458;14.540;2023-07-29T07:08:04;9.20;;;8.30;;
68076;SDS011;54866;53.458;14.540;2023-07-29T07:10:33;8.60;;;7.40;;
68076;SDS011;54866;53.458;14.540;2023-07-29T07:13:03;8.80;;;7.70;;
68076;SDS011;54866;53.458;14.540;2023-07-29T07:15:32;8.90;;;8.00;;
68076;SDS011;54866;53.458;14.540;2023-07-29T07:18:02;9.10;;;7.00;;
68076;SDS011;54866;53.458;14.540;2023-07-29T07:20:31;8.60;;;7.70;;
68076;SDS011;54866;53.458;14.540;2023-07-29T07:23:02;8.40;;;6.90;;
68076;SDS011;54866;53.458;14.540;2023-07-29T07:28:03;7.60;;;6.60;;
68076;SDS011;54866;53.458;14.540;2023-07-29T07:30:32;6.40;;;5.80;;
68076;SDS011;54866;53.458;14.540;2023-07-29T07:33:01;6.50;;;5.70;;
68076;SDS011;54866;53.458;14.540;2023-07-29T07:35:31;7.40;;;5.70;;
68076;SDS011;54866;53.458;14.540;2023-07-29T07:38:00;5.10;;;4.30;;
68076;SDS011;54866;53.458;14.540;2023-07-29T07:40:30;5.70;;;4.00;;
68076;SDS011;54866;53.458;14.540;2023-07-29T07:43:00;4.80;;;3.60;;
68076;SDS011;54866;53.458;14.540;2023-07-29T07:45:31;6.30;;;4.20;;
68076;SDS011;54866;53.458;14.540;2023-07-29T07:48:00;3.50;;;3.20;;
68076;SDS011;54866;53.458;14.540;2023-07-29T07:50:30;4.60;;;3.20;;
68076;SDS011;54866;53.458;14.540;2023-07-29T07:53:00;3.40;;;3.10;;
68076;SDS011;54866;53.458;14.540;2023-07-29T07:55:29;4.10;;;3.20;;
68076;SDS011;54866;53.458;14.540;2023-07-29T07:57:58;4.10;;;2.50;;
68076;SDS011;54866;53.458;14.540;2023-07-29T08:00:28;3.50;;;2.50;;
68076;SDS011;54866;53.458;14.540;2023-07-29T08:02:57;3.30;;;3.00;;
68076;SDS011;54866;53.458;14.540;2023-07-29T08:05:26;4.10;;;3.10;;
68076;SDS011;54866;53.458;14.540;2023-07-29T08:07:56;3.60;;;2.90;;
68076;SDS011;54866;53.458;14.540;2023-07-29T08:10:25;3.30;;;2.90;;
68076;SDS011;54866;53.458;14.540;2023-07-29T08:12:54;5.50;;;2.70;;
68076;SDS011;54866;53.458;14.540;2023-07-29T08:15:23;3.00;;;2.60;;
68076;SDS011;54866;53.458;14.540;2023-07-29T08:17:53;5.50;;;3.20;;
68076;SDS011;54866;53.458;14.540;2023-07-29T08:20:23;3.40;;;3.00;;
68076;SDS011;54866;53.458;14.540;2023-07-29T08:22:52;4.30;;;3.70;;
68076;SDS011;54866;53.458;14.540;2023-07-29T08:25:21;4.00;;;3.00;;
68076;SDS011;54866;53.458;14.540;2023-07-29T08:27:51;3.70;;;3.40;;
68076;SDS011;54866;53.458;14.540;2023-07-29T08:30:20;3.50;;;3.20;;
68076;SDS011;54866;53.458;14.540;2023-07-29T08:32:49;4.50;;;4.10;;
68076;SDS011;54866;53.458;14.540;2023-07-29T08:35:19;3.90;;;3.50;;
68076;SDS011;54866;53.458;14.540;2023-07-29T08:37:48;4.40;;;3.80;;
68076;SDS011;54866;53.458;14.540;2023-07-29T08:40:17;3.70;;;3.40;;
68076;SDS011;54866;53.458;14.540;2023-07-29T08:42:52;8.20;;;3.00;;
68076;SDS011;54866;53.458;14.540;2023-07-29T08:45:25;3.50;;;2.90;;
68076;SDS011;54866;53.458;14.540;2023-07-29T08:47:56;3.50;;;3.10;;
68076;SDS011;54866;53.458;14.540;2023-07-29T08:50:30;3.10;;;2.80;;
68076;SDS011;54866;53.458;14.540;2023-07-29T08:53:03;3.00;;;2.50;;
68076;SDS011;54866;53.458;14.540;2023-07-29T08:55:33;2.90;;;2.60;;
68076;SDS011;54866;53.458;14.540;2023-07-29T08:58:02;2.80;;;2.50;;
68076;SDS011;54866;53.458;14.540;2023-07-29T09:00:32;3.30;;;2.70;;
68076;SDS011;54866;53.458;14.540;2023-07-29T09:03:02;3.40;;;3.10;;
68076;SDS011;54866;53.458;14.540;2023-07-29T09:05:34;3.30;;;2.60;;
68076;SDS011;54866;53.458;14.540;2023-07-29T09:08:03;3.50;;;2.50;;
68076;SDS011;54866;53.458;14.540;2023-07-29T09:10:36;2.80;;;2.20;;
68076;SDS011;54866;53.458;14.540;2023-07-29T09:13:06;2.80;;;2.40;;
68076;SDS011;54866;53.458;14.540;2023-07-29T09:15:36;2.70;;;2.00;;
68076;SDS011;54866;53.458;14.540;2023-07-29T09:18:14;2.50;;;2.10;;
68076;SDS011;54866;53.458;14.540;2023-07-29T09:20:47;2.20;;;1.70;;
68076;SDS011;54866;53.458;14.540;2023-07-29T09:23:17;2.40;;;1.90;;
68076;SDS011;54866;53.458;14.540;2023-07-29T09:25:47;2.50;;;1.90;;
68076;SDS011;54866;53.458;14.540;2023-07-29T09:28:16;3.60;;;1.90;;
68076;SDS011;54866;53.458;14.540;2023-07-29T09:30:47;2.00;;;1.60;;
68076;SDS011;54866;53.458;14.540;2023-07-29T09:33:17;2.40;;;1.70;;
68076;SDS011;54866;53.458;14.540;2023-07-29T09:35:47;3.10;;;2.00;;
68076;SDS011;54866;53.458;14.540;2023-07-29T09:38:16;2.70;;;1.90;;
68076;SDS011;54866;53.458;14.540;2023-07-29T09:40:45;2.60;;;1.80;;
68076;SDS011;54866;53.458;14.540;2023-07-29T09:43:15;2.50;;;1.70;;
68076;SDS011;54866;53.458;14.540;2023-07-29T09:45:46;2.80;;;1.80;;
68076;SDS011;54866;53.458;14.540;2023-07-29T09:48:15;2.40;;;1.90;;
68076;SDS011;54866;53.458;14.540;2023-07-29T09:50:50;2.50;;;1.90;;
68076;SDS011;54866;53.458;14.540;2023-07-29T09:53:19;3.00;;;2.10;;
68076;SDS011;54866;53.458;14.540;2023-07-29T09:55:48;2.70;;;2.00;;
68076;SDS011;54866;53.458;14.540;2023-07-29T09:58:25;3.20;;;1.80;;
68076;SDS011;54866;53.458;14.540;2023-07-29T10:00:55;2.70;;;2.00;;
68076;SDS011;54866;53.458;14.540;2023-07-29T10:03:25;2.60;;;2.00;;
68076;SDS011;54866;53.458;14.540;2023-07-29T10:05:55;2.30;;;2.00;;
68076;SDS011;54866;53.458;14.540;2023-07-29T10:08:26;2.70;;;2.20;;
68076;SDS011;54866;53.458;14.540;2023-07-29T10:10:59;2.60;;;2.40;;
68076;SDS011;54866;53.458;14.540;2023-07-29T10:13:28;2.50;;;1.90;;
68076;SDS011;54866;53.458;14.540;2023-07-29T10:15:58;2.50;;;2.10;;
68076;SDS011;54866;53.458;14.540;2023-07-29T10:18:29;2.60;;;2.20;;
68076;SDS011;54866;53.458;14.540;2023-07-29T10:20:59;3.30;;;2.40;;
68076;SDS011;54866;53.458;14.540;2023-07-29T10:23:34;2.80;;;2.20;;
68076;SDS011;54866;53.458;14.540;2023-07-29T10:26:10;2.10;;;1.80;;
68076;SDS011;54866;53.458;14.540;2023-07-29T10:28:41;2.80;;;2.50;;
68076;SDS011;54866;53.458;14.540;2023-07-29T10:31:16;4.10;;;2.30;;
68076;SDS011;54866;53.458;14.540;2023-07-29T10:33:46;2.90;;;2.50;;
68076;SDS011;54866;53.458;14.540;2023-07-29T10:36:16;2.90;;;2.40;;
68076;SDS011;54866;53.458;14.540;2023-07-29T10:38:46;5.90;;;2.20;;
68076;SDS011;54866;53.458;14.540;2023-07-29T10:41:16;3.80;;;2.70;;
68076;SDS011;54866;53.458;14.540;2023-07-29T10:43:46;2.80;;;2.20;;
68076;SDS011;54866;53.458;14.540;2023-07-29T10:46:18;2.90;;;2.10;;
68076;SDS011;54866;53.458;14.540;2023-07-29T10:48:53;2.60;;;2.00;;
68076;SDS011;54866;53.458;14.540;2023-07-29T10:51:27;2.90;;;2.40;;
68076;SDS011;54866;53.458;14.540;2023-07-29T10:54:00;3.00;;;2.70;;
68076;SDS011;54866;53.458;14.540;2023-07-29T10:56:31;3.60;;;2.60;;
68076;SDS011;54866;53.458;14.540;2023-07-29T11:02:00;2.50;;;2.20;;
68076;SDS011;54866;53.458;14.540;2023-07-29T11:04:46;2.40;;;1.80;;
68076;SDS011;54866;53.458;14.540;2023-07-29T11:07:24;3.00;;;2.50;;
68076;SDS011;54866;53.458;14.540;2023-07-29T11:09:56;3.50;;;2.50;;
68076;SDS011;54866;53.458;14.540;2023-07-29T11:12:36;2.60;;;2.40;;
68076;SDS011;54866;53.458;14.540;2023-07-29T11:15:15;2.90;;;2.20;;
68076;SDS011;54866;53.458;14.540;2023-07-29T11:17:50;3.60;;;3.10;;
68076;SDS011;54866;53.458;14.540;2023-07-29T11:20:22;3.50;;;2.90;;
68076;SDS011;54866;53.458;14.540;2023-07-29T11:22:53;4.20;;;2.80;;
68076;SDS011;54866;53.458;14.540;2023-07-29T11:25:23;3.50;;;2.60;;
68076;SDS011;54866;53.458;14.540;2023-07-29T11:27:56;4.30;;;3.30;;
68076;SDS011;54866;53.458;14.540;2023-07-29T11:30:26;4.10;;;2.80;;
68076;SDS011;54866;53.458;14.540;2023-07-29T11:32:57;4.20;;;3.00;;
68076;SDS011;54866;53.458;14.540;2023-07-29T11:35:26;3.70;;;3.00;;
68076;SDS011;54866;53.458;14.540;2023-07-29T11:37:56;3.70;;;2.80;;
68076;SDS011;54866;53.458;14.540;2023-07-29T11:40:25;3.50;;;3.20;;
68076;SDS011;54866;53.458;14.540;2023-07-29T11:42:54;4.20;;;3.00;;
68076;SDS011;54866;53.458;14.540;2023-07-29T11:45:24;4.00;;;3.00;;
68076;SDS011;54866;53.458;14.540;2023-07-29T11:47:54;4.40;;;3.10;;
68076;SDS011;54866;53.458;14.540;2023-07-29T11:50:23;3.60;;;3.30;;
68076;SDS011;54866;53.458;14.540;2023-07-29T11:52:52;3.80;;;2.90;;
68076;SDS011;54866;53.458;14.540;2023-07-29T11:55:23;3.30;;;2.90;;
68076;SDS011;54866;53.458;14.540;2023-07-29T11:57:53;3.80;;;3.40;;
68076;SDS011;54866;53.458;14.540;2023-07-29T12:00:22;3.80;;;3.20;;
68076;SDS011;54866;53.458;14.540;2023-07-29T12:02:53;3.60;;;3.00;;
68076;SDS011;54866;53.458;14.540;2023-07-29T12:05:23;3.90;;;3.00;;
68076;SDS011;54866;53.458;14.540;2023-07-29T12:07:53;3.40;;;3.10;;
68076;SDS011;54866;53.458;14.540;2023-07-29T12:10:23;3.00;;;2.60;;
68076;SDS011;54866;53.458;14.540;2023-07-29T12:12:53;3.50;;;2.80;;
68076;SDS011;54866;53.458;14.540;2023-07-29T12:15:26;3.30;;;2.40;;
68076;SDS011;54866;53.458;14.540;2023-07-29T12:17:57;2.80;;;2.20;;
68076;SDS011;54866;53.458;14.540;2023-07-29T12:20:26;5.30;;;2.30;;
68076;SDS011;54866;53.458;14.540;2023-07-29T12:22:57;3.80;;;2.40;;
68076;SDS011;54866;53.458;14.540;2023-07-29T12:25:29;3.80;;;2.00;;
68076;SDS011;54866;53.458;14.540;2023-07-29T12:28:02;2.80;;;1.80;;
68076;SDS011;54866;53.458;14.540;2023-07-29T12:30:33;2.90;;;1.70;;
68076;SDS011;54866;53.458;14.540;2023-07-29T12:33:08;2.60;;;1.70;;
68076;SDS011;54866;53.458;14.540;2023-07-29T12:35:38;4.50;;;1.70;;
68076;SDS011;54866;53.458;14.540;2023-07-29T12:38:08;5.50;;;2.40;;
68076;SDS011;54866;53.458;14.540;2023-07-29T12:40:38;5.30;;;2.00;;
68076;SDS011;54866;53.458;14.540;2023-07-29T12:43:08;3.80;;;2.00;;
68076;SDS011;54866;53.458;14.540;2023-07-29T12:45:38;2.80;;;1.80;;
68076;SDS011;54866;53.458;14.540;2023-07-29T12:48:08;4.30;;;2.30;;
68076;SDS011;54866;53.458;14.540;2023-07-29T12:50:38;4.40;;;2.40;;
68076;SDS011;54866;53.458;14.540;2023-07-29T12:53:08;3.40;;;2.20;;
68076;SDS011;54866;53.458;14.540;2023-07-29T12:55:38;2.90;;;2.00;;
68076;SDS011;54866;53.458;14.540;2023-07-29T12:58:07;3.10;;;2.30;;
68076;SDS011;54866;53.458;14.540;2023-07-29T13:00:36;3.90;;;2.40;;
68076;SDS011;54866;53.458;14.540;2023-07-29T13:03:06;4.90;;;2.60;;
68076;SDS011;54866;53.458;14.540;2023-07-29T13:05:35;3.90;;;2.80;;
68076;SDS011;54866;53.458;14.540;2023-07-29T13:08:04;4.90;;;2.10;;
68076;SDS011;54866;53.458;14.540;2023-07-29T13:10:34;5.60;;;2.90;;
68076;SDS011;54866;53.458;14.540;2023-07-29T13:13:03;3.60;;;2.20;;
68076;SDS011;54866;53.458;14.540;2023-07-29T13:15:32;5.10;;;2.70;;
68076;SDS011;54866;53.458;14.540;2023-07-29T13:18:02;3.20;;;2.00;;
68076;SDS011;54866;53.458;14.540;2023-07-29T13:20:31;2.70;;;2.10;;
68076;SDS011;54866;53.458;14.540;2023-07-29T13:23:01;3.60;;;2.30;;
68076;SDS011;54866;53.458;14.540;2023-07-29T13:25:30;3.20;;;2.40;;
68076;SDS011;54866;53.458;14.540;2023-07-29T13:28:00;4.40;;;2.50;;
68076;SDS011;54866;53.458;14.540;2023-07-29T13:30:30;3.80;;;2.50;;
68076;SDS011;54866;53.458;14.540;2023-07-29T13:33:00;3.70;;;2.60;;
68076;SDS011;54866;53.458;14.540;2023-07-29T13:35:29;3.00;;;2.40;;
68076;SDS011;54866;53.458;14.540;2023-07-29T13:37:59;4.90;;;2.70;;
68076;SDS011;54866;53.458;14.540;2023-07-29T13:40:29;4.10;;;2.80;;
68076;SDS011;54866;53.458;14.540;2023-07-29T13:42:58;3.50;;;2.70;;
68076;SDS011;54866;53.458;14.540;2023-07-29T13:45:28;4.40;;;2.90;;
68076;SDS011;54866;53.458;14.540;2023-07-29T13:47:57;4.70;;;3.10;;
68076;SDS011;54866;53.458;14.540;2023-07-29T13:50:27;5.80;;;3.60;;
68076;SDS011;54866;53.458;14.540;2023-07-29T13:52:56;5.40;;;3.60;;
68076;SDS011;54866;53.458;14.540;2023-07-29T13:55:25;6.40;;;3.70;;
68076;SDS011;54866;53.458;14.540;2023-07-29T13:57:55;6.00;;;4.40;;
68076;SDS011;54866;53.458;14.540;2023-07-29T14:00:24;5.70;;;4.30;;
68076;SDS011;54866;53.458;14.540;2023-07-29T14:02:54;5.30;;;3.90;;
68076;SDS011;54866;53.458;14.540;2023-07-29T14:05:23;6.10;;;4.40;;
68076;SDS011;54866;53.458;14.540;2023-07-29T14:07:52;6.00;;;4.10;;
68076;SDS011;54866;53.458;14.540;2023-07-29T14:10:22;5.80;;;4.60;;
68076;SDS011;54866;53.458;14.540;2023-07-29T14:12:52;5.60;;;4.10;;
68076;SDS011;54866;53.458;14.540;2023-07-29T14:15:21;5.50;;;4.90;;
68076;SDS011;54866;53.458;14.540;2023-07-29T14:17:50;7.50;;;5.30;;
68076;SDS011;54866;53.458;14.540;2023-07-29T14:20:20;7.50;;;4.90;;
68076;SDS011;54866;53.458;14.540;2023-07-29T14:22:49;6.40;;;5.00;;
68076;SDS011;54866;53.458;14.540;2023-07-29T14:25:18;6.70;;;4.70;;
68076;SDS011;54866;53.458;14.540;2023-07-29T14:27:48;5.60;;;4.50;;
68076;SDS011;54866;53.458;14.540;2023-07-29T14:30:17;5.50;;;4.90;;
68076;SDS011;54866;53.458;14.540;2023-07-29T14:32:47;6.00;;;4.30;;
68076;SDS011;54866;53.458;14.540;2023-07-29T14:35:16;5.30;;;4.00;;
68076;SDS011;54866;53.458;14.540;2023-07-29T14:37:46;5.80;;;4.60;;
68076;SDS011;54866;53.458;14.540;2023-07-29T14:40:15;4.80;;;3.90;;
68076;SDS011;54866;53.458;14.540;2023-07-29T14:42:45;6.30;;;4.20;;
68076;SDS011;54866;53.458;14.540;2023-07-29T14:45:14;5.20;;;3.80;;
68076;SDS011;54866;53.458;14.540;2023-07-29T14:47:43;4.40;;;3.70;;
68076;SDS011;54866;53.458;14.540;2023-07-29T14:50:13;4.60;;;3.80;;
68076;SDS011;54866;53.458;14.540;2023-07-29T14:52:42;5.10;;;3.70;;
68076;SDS011;54866;53.458;14.540;2023-07-29T14:55:11;4.90;;;3.40;;
68076;SDS011;54866;53.458;14.540;2023-07-29T14:57:41;4.90;;;2.90;;